sensor_id;sensor_type;location;lat;lon;timestamp;pressure;altitude;pressure_sealevel;temperature;humidity
9462;BME280;4769;42.660;23.262;2024-03-02T00:05:22;93417.50;;;9.99;97.63
9462;BME280;4769;42.660;23.262;2024-03-02T00:08:07;93423.72;;;10.20;96.52
9462;BME280;4769;42.660;23.262;2024-03-02T00:11:02;93425.09;;;10.32;96.03
9462;BME280;4769;42.660;23.262;2024-03-02T00:13:39;93422.84;;;10.09;97.25
9462;BME280;4769;42.660;23.262;2024-03-02T00:16:43;93418.03;;;10.01;97.24
9462;BME280;4769;42.660;23.262;2024-03-02T00:19:21;93430.38;;;9.96;98.46
9462;BME280;4769;42.660;23.262;2024-03-02T00:21:47;93417.72;;;9.93;98.26
9462;BME280;4769;42.660;23.262;2024-03-02T00:24:36;93423.66;;;9.78;98.31
9462;BME280;4769;42.660;23.262;2024-03-02T00:27:07;93417.94;;;9.55;100.00
9462;BME280;4769;42.660;23.262;2024-03-02T00:29:39;93424.56;;;9.62;99.79
9462;BME280;4769;42.660;23.262;2024-03-02T00:32:16;93423.63;;;9.73;99.65
9462;BME280;4769;42.660;23.262;2024-03-02T00:37:39;93412.94;;;9.85;98.74
9462;BME280;4769;42.660;23.262;2024-03-02T00:40:05;93416.63;;;9.89;99.34
9462;BME280;4769;42.660;23.262;2024-03-02T00:42:38;93410.97;;;10.07;98.51
9462;BME280;4769;42.660;23.262;2024-03-02T00:45:28;93416.66;;;10.25;97.57
9462;BME280;4769;42.660;23.262;2024-03-02T00:48:20;93406.81;;;10.11;98.42
9462;BME280;4769;42.660;23.262;2024-03-02T00:53:38;93391.97;;;10.41;96.94
9462;BME280;4769;42.660;23.262;2024-03-02T00:56:09;93409.41;;;10.52;96.81
9462;BME280;4769;42.660;23.262;2024-03-02T00:58:48;93405.78;;;10.63;96.04
9462;BME280;4769;42.660;23.262;2024-03-02T01:01:14;93413.44;;;10.65;95.94
9462;BME280;4769;42.660;23.262;2024-03-02T01:03:48;93404.41;;;10.56;96.13
9462;BME280;4769;42.660;23.262;2024-03-02T01:06:24;93401.78;;;10.56;96.04
9462;BME280;4769;42.660;23.262;2024-03-02T01:08:56;93400.25;;;10.65;96.17
9462;BME280;4769;42.660;23.262;2024-03-02T01:11:45;93389.44;;;10.66;95.90
9462;BME280;4769;42.660;23.262;2024-03-02T01:14:24;93395.47;;;10.57;96.32
9462;BME280;4769;42.660;23.262;2024-03-02T01:16:52;93399.66;;;10.53;97.18
9462;BME280;4769;42.660;23.262;2024-03-02T01:19:44;93394.38;;;10.48;97.74
9462;BME280;4769;42.660;23.262;2024-03-02T01:22:13;93384.88;;;10.47;97.42
9462;BME280;4769;42.660;23.262;2024-03-02T01:24:38;93388.47;;;10.31;97.81
9462;BME280;4769;42.660;23.262;2024-03-02T01:27:09;93375.81;;;10.28;98.14
9462;BME280;4769;42.660;23.262;2024-03-02T01:29:57;93384.47;;;10.23;98.50
9462;BME280;4769;42.660;23.262;2024-03-02T01:32:26;93379.53;;;10.32;97.96
9462;BME280;4769;42.660;23.262;2024-03-02T01:38:04;93379.06;;;10.50;97.15
9462;BME280;4769;42.660;23.262;2024-03-02T01:40:54;93376.91;;;10.32;98.04
9462;BME280;4769;42.660;23.262;2024-03-02T01:43:25;93372.66;;;10.31;97.97
9462;BME280;4769;42.660;23.262;2024-03-02T01:46:14;93368.22;;;10.36;97.98
9462;BME280;4769;42.660;23.262;2024-03-02T01:48:40;93374.84;;;10.44;98.55
9462;BME280;4769;42.660;23.262;2024-03-02T01:51:08;93367.50;;;10.51;98.02
9462;BME280;4769;42.660;23.262;2024-03-02T01:53:40;93364.28;;;10.39;96.52
9462;BME280;4769;42.660;23.262;2024-03-02T01:56:05;93363.72;;;10.32;97.55
9462;BME280;4769;42.660;23.262;2024-03-02T01:58:37;93363.19;;;10.35;97.62
9462;BME280;4769;42.660;23.262;2024-03-02T02:01:14;93374.28;;;10.37;98.22
9462;BME280;4769;42.660;23.262;2024-03-02T02:03:39;93365.56;;;10.31;99.00
9462;BME280;4769;42.660;23.262;2024-03-02T02:06:14;93365.84;;;10.35;99.64
9462;BME280;4769;42.660;23.262;2024-03-02T02:08:55;93372.69;;;10.36;99.31
9462;BME280;4769;42.660;23.262;2024-03-02T02:11:29;93368.00;;;10.43;98.82
9462;BME280;4769;42.660;23.262;2024-03-02T02:13:57;93368.78;;;10.43;98.43
9462;BME280;4769;42.660;23.262;2024-03-02T02:16:23;93368.50;;;10.40;98.58
9462;BME280;4769;42.660;23.262;2024-03-02T02:18:48;93371.16;;;10.45;98.62
9462;BME280;4769;42.660;23.262;2024-03-02T02:21:16;93362.47;;;10.44;98.73
9462;BME280;4769;42.660;23.262;2024-03-02T02:23:50;93362.50;;;10.54;98.66
9462;BME280;4769;42.660;23.262;2024-03-02T02:26:19;93371.75;;;10.62;98.49
9462;BME280;4769;42.660;23.262;2024-03-02T02:28:44;93368.63;;;10.65;98.71
9462;BME280;4769;42.660;23.262;2024-03-02T02:31:20;93370.94;;;10.61;99.25
9462;BME280;4769;42.660;23.262;2024-03-02T02:33:46;93364.88;;;10.56;99.58
9462;BME280;4769;42.660;23.262;2024-03-02T02:36:17;93365.94;;;10.55;99.11
9462;BME280;4769;42.660;23.262;2024-03-02T02:41:33;93363.31;;;10.55;97.45
9462;BME280;4769;42.660;23.262;2024-03-02T02:44:01;93370.66;;;10.53;97.47
9462;BME280;4769;42.660;23.262;2024-03-02T02:46:35;93368.03;;;10.53;97.51
9462;BME280;4769;42.660;23.262;2024-03-02T02:49:07;93365.38;;;10.53;97.00
9462;BME280;4769;42.660;23.262;2024-03-02T02:51:38;93375.38;;;10.41;97.13
9462;BME280;4769;42.660;23.262;2024-03-02T02:54:37;93369.53;;;10.39;97.07
9462;BME280;4769;42.660;23.262;2024-03-02T02:57:05;93372.75;;;10.41;97.40
9462;BME280;4769;42.660;23.262;2024-03-02T02:59:42;93371.97;;;10.50;97.08
9462;BME280;4769;42.660;23.262;2024-03-02T03:02:07;93372.53;;;10.57;97.28
9462;BME280;4769;42.660;23.262;2024-03-02T03:04:48;93372.28;;;10.64;97.49
9462;BME280;4769;42.660;23.262;2024-03-02T03:07:38;93372.00;;;10.60;98.14
9462;BME280;4769;42.660;23.262;2024-03-02T03:10:11;93373.25;;;10.43;99.30
9462;BME280;4769;42.660;23.262;2024-03-02T03:13:19;93378.00;;;10.41;100.00
9462;BME280;4769;42.660;23.262;2024-03-02T03:18:59;93372.31;;;10.12;100.00
9462;BME280;4769;42.660;23.262;2024-03-02T03:21:24;93370.88;;;9.95;100.00
9462;BME280;4769;42.660;23.262;2024-03-02T03:24:14;93377.69;;;9.91;100.00
9462;BME280;4769;42.660;23.262;2024-03-02T03:26:43;93370.34;;;9.98;100.00
9462;BME280;4769;42.660;23.262;2024-03-02T03:29:08;93373.00;;;10.03;100.00
9462;BME280;4769;42.660;23.262;2024-03-02T03:31:37;93377.22;;;9.99;100.00
9462;BME280;4769;42.660;23.262;2024-03-02T03:34:02;93368.13;;;10.16;100.00
9462;BME280;4769;42.660;23.262;2024-03-02T03:36:32;93373.13;;;10.13;100.00
9462;BME280;4769;42.660;23.262;2024-03-02T03:39:01;93376.41;;;9.98;100.00
9462;BME280;4769;42.660;23.262;2024-03-02T03:41:34;93378.31;;;10.08;100.00
9462;BME280;4769;42.660;23.262;2024-03-02T03:44:03;93371.03;;;10.20;100.00
9462;BME280;4769;42.660;23.262;2024-03-02T03:46:51;93372.84;;;10.14;100.00
9462;BME280;4769;42.660;23.262;2024-03-02T03:49:20;93377.03;;;9.74;100.00
9462;BME280;4769;42.660;23.262;2024-03-02T03:52:08;93375.63;;;9.61;100.00
9462;BME280;4769;42.660;23.262;2024-03-02T03:54:34;93384.94;;;9.74;100.00
9462;BME280;4769;42.660;23.262;2024-03-02T03:57:10;93373.44;;;9.85;100.00
9462;BME280;4769;42.660;23.262;2024-03-02T03:59:38;93370.06;;;9.94;100.00
9462;BME280;4769;42.660;23.262;2024-03-02T04:02:15;93377.22;;;9.99;100.00
9462;BME280;4769;42.660;23.262;2024-03-02T04:04:43;93383.25;;;9.99;100.00
9462;BME280;4769;42.660;23.262;2024-03-02T04:07:22;93378.59;;;10.06;100.00
9462;BME280;4769;42.660;23.262;2024-03-02T04:09:47;93377.94;;;9.89;100.00
9462;BME280;4769;42.660;23.262;2024-03-02T04:12:13;93376.38;;;9.93;100.00
9462;BME280;4769;42.660;23.262;2024-03-02T04:14:38;93378.25;;;9.98;100.00
9462;BME280;4769;42.660;23.262;2024-03-02T04:17:04;93374.50;;;9.89;100.00
9462;BME280;4769;42.660;23.262;2024-03-02T04:19:29;93375.03;;;9.86;100.00
9462;BME280;4769;42.660;23.262;2024-03-02T04:21:54;93373.91;;;9.77;100.00
9462;BME280;4769;42.660;23.262;2024-03-02T04:24:20;93373.38;;;9.80;100.00
9462;BME280;4769;42.660;23.262;2024-03-02T04:26:45;93380.81;;;9.88;100.00
9462;BME280;4769;42.660;23.262;2024-03-02T04:29:11;93374.81;;;9.92;100.00
9462;BME280;4769;42.660;23.262;2024-03-02T04:31:36;93378.56;;;10.01;100.00
9462;BME280;4769;42.660;23.262;2024-03-02T04:34:01;93376.63;;;9.92;100.00
9462;BME280;4769;42.660;23.262;2024-03-02T04:36:27;93378.84;;;10.05;100.00
9462;BME280;4769;42.660;23.262;2024-03-02T04:38:52;93384.34;;;10.03;100.00
9462;BME280;4769;42.660;23.262;2024-03-02T04:41:18;93375.34;;;9.99;100.00
9462;BME280;4769;42.660;23.262;2024-03-02T04:43:43;93374.53;;;9.94;100.00
9462;BME280;4769;42.660;23.262;2024-03-02T04:46:08;93383.00;;;10.01;100.00
9462;BME280;4769;42.660;23.262;2024-03-02T04:48:36;93383.34;;;10.09;100.00
9462;BME280;4769;42.660;23.262;2024-03-02T04:51:02;93386.34;;;9.91;100.00
9462;BME280;4769;42.660;23.262;2024-03-02T04:53:27;93391.16;;;9.99;100.00
9462;BME280;4769;42.660;23.262;2024-03-02T04:55:52;93391.56;;;9.81;100.00
9462;BME280;4769;42.660;23.262;2024-03-02T04:58:21;93395.88;;;9.92;100.00
9462;BME280;4769;42.660;23.262;2024-03-02T05:00:49;93388.34;;;10.06;100.00
9462;BME280;4769;42.660;23.262;2024-03-02T05:03:17;93389.19;;;10.16;100.00
9462;BME280;4769;42.660;23.262;2024-03-02T05:06:08;93390.88;;;9.96;100.00
9462;BME280;4769;42.660;23.262;2024-03-02T05:08:37;93389.56;;;9.98;100.00
9462;BME280;4769;42.660;23.262;2024-03-02T05:11:04;93391.13;;;9.94;100.00
9462;BME280;4769;42.660;23.262;2024-03-02T05:13:57;93390.81;;;9.86;100.00
9462;BME280;4769;42.660;23.262;2024-03-02T05:16:23;93402.19;;;9.60;100.00
9462;BME280;4769;42.660;23.262;2024-03-02T05:18:54;93396.56;;;9.46;100.00
9462;BME280;4769;42.660;23.262;2024-03-02T05:21:20;93396.84;;;9.50;100.00
9462;BME280;4769;42.660;23.262;2024-03-02T05:23:46;93409.00;;;9.56;100.00
9462;BME280;4769;42.660;23.262;2024-03-02T05:26:14;93402.25;;;9.70;100.00
9462;BME280;4769;42.660;23.262;2024-03-02T05:28:42;93410.69;;;9.67;100.00
9462;BME280;4769;42.660;23.262;2024-03-02T05:31:10;93411.28;;;9.79;100.00
9462;BME280;4769;42.660;23.262;2024-03-02T05:33:38;93411.31;;;9.84;100.00
9462;BME280;4769;42.660;23.262;2024-03-02T05:36:07;93412.75;;;9.65;100.00
9462;BME280;4769;42.660;23.262;2024-03-02T05:38:38;93423.41;;;9.80;100.00
9462;BME280;4769;42.660;23.262;2024-03-02T05:41:09;93416.16;;;9.97;100.00
9462;BME280;4769;42.660;23.262;2024-03-02T05:43:34;93419.38;;;10.04;100.00
9462;BME280;4769;42.660;23.262;2024-03-02T05:46:01;93423.69;;;10.15;100.00
9462;BME280;4769;42.660;23.262;2024-03-02T05:48:30;93423.16;;;10.13;100.00
9462;BME280;4769;42.660;23.262;2024-03-02T05:50:58;93432.69;;;10.24;100.00
9462;BME280;4769;42.660;23.262;2024-03-02T05:53:23;93432.69;;;10.24;100.00
9462;BME280;4769;42.660;23.262;2024-03-02T05:55:49;93429.88;;;9.99;100.00
9462;BME280;4769;42.660;23.262;2024-03-02T05:58:18;93429.00;;;9.88;100.00
9462;BME280;4769;42.660;23.262;2024-03-02T06:01:23;93429.72;;;9.79;100.00
9462;BME280;4769;42.660;23.262;2024-03-02T06:03:56;93432.06;;;9.75;100.00
9462;BME280;4769;42.660;23.262;2024-03-02T06:06:25;93427.75;;;9.96;100.00
9462;BME280;4769;42.660;23.262;2024-03-02T06:08:51;93424.72;;;10.09;100.00
9462;BME280;4769;42.660;23.262;2024-03-02T06:11:18;93431.13;;;10.23;100.00
9462;BME280;4769;42.660;23.262;2024-03-02T06:13:44;93428.00;;;10.31;100.00
9462;BME280;4769;42.660;23.262;2024-03-02T06:16:10;93433.84;;;10.38;100.00
9462;BME280;4769;42.660;23.262;2024-03-02T06:18:35;93426.78;;;10.43;100.00
9462;BME280;4769;42.660;23.262;2024-03-02T06:21:00;93428.09;;;10.46;100.00
9462;BME280;4769;42.660;23.262;2024-03-02T06:23:26;93425.50;;;10.56;100.00
9462;BME280;4769;42.660;23.262;2024-03-02T06:25:52;93433.44;;;10.61;100.00
9462;BME280;4769;42.660;23.262;2024-03-02T06:28:17;93430.28;;;10.64;100.00
9462;BME280;4769;42.660;23.262;2024-03-02T06:30:43;93434.53;;;10.65;100.00
9462;BME280;4769;42.660;23.262;2024-03-02T06:33:09;93436.06;;;10.61;100.00
9462;BME280;4769;42.660;23.262;2024-03-02T06:35:35;93438.44;;;10.57;100.00
9462;BME280;4769;42.660;23.262;2024-03-02T06:38:01;93442.41;;;10.60;100.00
9462;BME280;4769;42.660;23.262;2024-03-02T06:40:26;93439.69;;;10.50;100.00
9462;BME280;4769;42.660;23.262;2024-03-02T06:42:52;93436.56;;;10.53;100.00
9462;BME280;4769;42.660;23.262;2024-03-02T06:45:17;93448.44;;;10.60;100.00
9462;BME280;4769;42.660;23.262;2024-03-02T06:47:42;93446.34;;;10.57;100.00
9462;BME280;4769;42.660;23.262;2024-03-02T06:50:08;93443.44;;;10.59;100.00
9462;BME280;4769;42.660;23.262;2024-03-02T06:52:34;93449.56;;;10.74;100.00
9462;BME280;4769;42.660;23.262;2024-03-02T06:55:00;93448.78;;;10.74;100.00
9462;BME280;4769;42.660;23.262;2024-03-02T06:57:25;93446.97;;;10.79;100.00
9462;BME280;4769;42.660;23.262;2024-03-02T06:59:51;93450.94;;;10.87;100.00
9462;BME280;4769;42.660;23.262;2024-03-02T07:02:16;93456.53;;;10.95;100.00
9462;BME280;4769;42.660;23.262;2024-03-02T07:04:42;93453.25;;;10.68;100.00
9462;BME280;4769;42.660;23.262;2024-03-02T07:07:07;93455.59;;;10.60;100.00
9462;BME280;4769;42.660;23.262;2024-03-02T07:09:33;93461.41;;;10.67;100.00
9462;BME280;4769;42.660;23.262;2024-03-02T07:11:58;93456.75;;;10.84;100.00
9462;BME280;4769;42.660;23.262;2024-03-02T07:14:24;93458.28;;;10.75;100.00
9462;BME280;4769;42.660;23.262;2024-03-02T07:17:12;93457.88;;;10.98;100.00
9462;BME280;4769;42.660;23.262;2024-03-02T07:19:38;93452.59;;;10.98;100.00
9462;BME280;4769;42.660;23.262;2024-03-02T07:22:06;93461.03;;;11.05;100.00
9462;BME280;4769;42.660;23.262;2024-03-02T07:24:32;93467.13;;;11.05;100.00
9462;BME280;4769;42.660;23.262;2024-03-02T07:26:58;93455.75;;;11.00;100.00
9462;BME280;4769;42.660;23.262;2024-03-02T07:29:23;93457.41;;;11.16;100.00
9462;BME280;4769;42.660;23.262;2024-03-02T07:31:49;93460.06;;;11.31;100.00
9462;BME280;4769;42.660;23.262;2024-03-02T07:34:14;93463.53;;;11.41;100.00
9462;BME280;4769;42.660;23.262;2024-03-02T07:36:40;93465.88;;;11.38;100.00
9462;BME280;4769;42.660;23.262;2024-03-02T07:39:05;93461.94;;;11.40;100.00
9462;BME280;4769;42.660;23.262;2024-03-02T07:41:32;93466.94;;;11.32;100.00
9462;BME280;4769;42.660;23.262;2024-03-02T07:43:58;93468.50;;;11.33;100.00
9462;BME280;4769;42.660;23.262;2024-03-02T07:46:23;93469.34;;;11.43;100.00
9462;BME280;4769;42.660;23.262;2024-03-02T07:48:49;93468.03;;;11.51;100.00
9462;BME280;4769;42.660;23.262;2024-03-02T07:51:17;93471.25;;;11.63;100.00
9462;BME280;4769;42.660;23.262;2024-03-02T07:53:42;93476.03;;;11.81;100.00
9462;BME280;4769;42.660;23.262;2024-03-02T07:56:08;93473.66;;;11.79;99.30
9462;BME280;4769;42.660;23.262;2024-03-02T07:58:33;93476.81;;;11.81;99.38
9462;BME280;4769;42.660;23.262;2024-03-02T08:01:00;93473.94;;;11.83;100.00
9462;BME280;4769;42.660;23.262;2024-03-02T08:03:28;93475.00;;;11.87;100.00
9462;BME280;4769;42.660;23.262;2024-03-02T08:05:54;93478.16;;;11.99;98.81
9462;BME280;4769;42.660;23.262;2024-03-02T08:08:19;93481.72;;;11.43;99.59
9462;BME280;4769;42.660;23.262;2024-03-02T08:10:45;93488.88;;;11.37;100.00
9462;BME280;4769;42.660;23.262;2024-03-02T08:13:10;93485.41;;;11.37;100.00
9462;BME280;4769;42.660;23.262;2024-03-02T08:15:35;93486.50;;;11.46;100.00
9462;BME280;4769;42.660;23.262;2024-03-02T08:18:01;93483.38;;;11.54;100.00
9462;BME280;4769;42.660;23.262;2024-03-02T08:20:27;93488.44;;;11.65;100.00
9462;BME280;4769;42.660;23.262;2024-03-02T08:22:58;93488.72;;;11.89;100.00
9462;BME280;4769;42.660;23.262;2024-03-02T08:25:24;93478.69;;;12.01;99.56
9462;BME280;4769;42.660;23.262;2024-03-02T08:27:50;93483.63;;;11.57;100.00
9462;BME280;4769;42.660;23.262;2024-03-02T08:30:18;93489.63;;;11.28;100.00
9462;BME280;4769;42.660;23.262;2024-03-02T08:32:43;93483.59;;;11.42;100.00
9462;BME280;4769;42.660;23.262;2024-03-02T08:35:10;93480.00;;;11.78;100.00
9462;BME280;4769;42.660;23.262;2024-03-02T08:37:38;93481.84;;;11.88;100.00
9462;BME280;4769;42.660;23.262;2024-03-02T08:40:06;93485.81;;;12.05;100.00
9462;BME280;4769;42.660;23.262;2024-03-02T08:42:32;93482.91;;;12.12;99.36
9462;BME280;4769;42.660;23.262;2024-03-02T08:44:58;93474.72;;;12.18;98.18
9462;BME280;4769;42.660;23.262;2024-03-02T08:47:28;93482.41;;;12.15;98.05
9462;BME280;4769;42.660;23.262;2024-03-02T08:49:53;93488.72;;;11.89;98.50
9462;BME280;4769;42.660;23.262;2024-03-02T08:52:19;93487.38;;;11.86;98.98
9462;BME280;4769;42.660;23.262;2024-03-02T08:54:44;93485.81;;;11.85;98.41
9462;BME280;4769;42.660;23.262;2024-03-02T08:57:10;93488.19;;;12.02;98.13
9462;BME280;4769;42.660;23.262;2024-03-02T08:59:35;93493.22;;;12.33;97.43
9462;BME280;4769;42.660;23.262;2024-03-02T09:02:01;93485.28;;;12.38;96.80
9462;BME280;4769;42.660;23.262;2024-03-02T09:04:27;93491.09;;;12.45;97.09
9462;BME280;4769;42.660;23.262;2024-03-02T09:06:53;93493.44;;;12.62;96.49
9462;BME280;4769;42.660;23.262;2024-03-02T09:09:18;93495.03;;;12.68;95.91
9462;BME280;4769;42.660;23.262;2024-03-02T09:11:46;93496.34;;;12.65;95.81
9462;BME280;4769;42.660;23.262;2024-03-02T09:14:11;93497.19;;;12.56;95.61
9462;BME280;4769;42.660;23.262;2024-03-02T09:16:47;93502.97;;;12.58;95.38
9462;BME280;4769;42.660;23.262;2024-03-02T09:19:12;93495.56;;;12.50;95.22
9462;BME280;4769;42.660;23.262;2024-03-02T09:21:38;93508.28;;;12.43;94.28
9462;BME280;4769;42.660;23.262;2024-03-02T09:24:04;93505.91;;;12.46;94.46
9462;BME280;4769;42.660;23.262;2024-03-02T09:26:29;93512.22;;;12.55;93.81
9462;BME280;4769;42.660;23.262;2024-03-02T09:28:55;93508.03;;;12.49;94.04
9462;BME280;4769;42.660;23.262;2024-03-02T09:31:20;93504.31;;;12.50;94.28
9462;BME280;4769;42.660;23.262;2024-03-02T09:33:46;93506.94;;;12.55;94.46
9462;BME280;4769;42.660;23.262;2024-03-02T09:36:18;93505.09;;;12.66;93.41
9462;BME280;4769;42.660;23.262;2024-03-02T09:38:50;93507.47;;;12.67;93.07
9462;BME280;4769;42.660;23.262;2024-03-02T09:41:27;93510.63;;;12.69;92.59
9462;BME280;4769;42.660;23.262;2024-03-02T09:43:56;93515.38;;;12.77;92.04
9462;BME280;4769;42.660;23.262;2024-03-02T09:46:23;93516.69;;;12.85;91.55
9462;BME280;4769;42.660;23.262;2024-03-02T09:48:51;93508.72;;;12.90;90.83
9462;BME280;4769;42.660;23.262;2024-03-02T09:51:17;93506.34;;;12.93;91.19
9462;BME280;4769;42.660;23.262;2024-03-02T09:53:45;93501.31;;;13.07;89.79
9462;BME280;4769;42.660;23.262;2024-03-02T09:56:15;93510.06;;;12.97;90.28
9462;BME280;4769;42.660;23.262;2024-03-02T09:58:41;93509.28;;;13.02;90.51
9462;BME280;4769;42.660;23.262;2024-03-02T10:01:10;93510.31;;;13.01;90.57
9462;BME280;4769;42.660;23.262;2024-03-02T10:03:37;93512.94;;;12.96;89.47
9462;BME280;4769;42.660;23.262;2024-03-02T10:06:32;93512.44;;;12.94;89.14
9462;BME280;4769;42.660;23.262;2024-03-02T10:08:57;93509.00;;;12.88;88.87
9462;BME280;4769;42.660;23.262;2024-03-02T10:11:30;93507.44;;;12.77;89.09
9462;BME280;4769;42.660;23.262;2024-03-02T10:20:44;93509.63;;;12.25;94.05
9462;BME280;4769;42.660;23.262;2024-03-02T10:22:44;93517.81;;;12.14;94.84
9462;BME280;4769;42.660;23.262;2024-03-02T10:25:28;93512.53;;;12.09;96.40
9462;BME280;4769;42.660;23.262;2024-03-02T10:27:57;93499.81;;;12.36;95.25
9462;BME280;4769;42.660;23.262;2024-03-02T10:30:22;93504.84;;;12.42;95.43
9462;BME280;4769;42.660;23.262;2024-03-02T10:32:49;93507.75;;;12.61;95.53
9462;BME280;4769;42.660;23.262;2024-03-02T10:35:16;93504.00;;;12.72;94.83
9462;BME280;4769;42.660;23.262;2024-03-02T10:37:47;93509.00;;;12.88;94.30
9462;BME280;4769;42.660;23.262;2024-03-02T10:40:15;93495.00;;;12.78;94.15
9462;BME280;4769;42.660;23.262;2024-03-02T10:42:41;93501.09;;;12.73;94.69
9462;BME280;4769;42.660;23.262;2024-03-02T10:45:19;93504.31;;;12.55;95.85
9462;BME280;4769;42.660;23.262;2024-03-02T10:47:47;93500.34;;;12.48;95.65
9462;BME280;4769;42.660;23.262;2024-03-02T10:50:14;93495.84;;;12.38;97.30
9462;BME280;4769;42.660;23.262;2024-03-02T10:52:43;93488.19;;;12.12;98.77
9462;BME280;4769;42.660;23.262;2024-03-02T10:55:09;93483.97;;;12.16;99.26
9462;BME280;4769;42.660;23.262;2024-03-02T10:57:45;93487.94;;;12.08;99.90
9462;BME280;4769;42.660;23.262;2024-03-02T11:00:15;93484.25;;;12.09;100.00
9462;BME280;4769;42.660;23.262;2024-03-02T11:02:52;93491.13;;;12.30;100.00
9462;BME280;4769;42.660;23.262;2024-03-02T11:05:37;93491.91;;;12.21;100.00
9462;BME280;4769;42.660;23.262;2024-03-02T11:08:18;93486.88;;;12.04;100.00
9462;BME280;4769;42.660;23.262;2024-03-02T11:11:15;93486.63;;;12.01;100.00
9462;BME280;4769;42.660;23.262;2024-03-02T11:13:49;93483.19;;;11.95;100.00
9462;BME280;4769;42.660;23.262;2024-03-02T11:16:36;93483.97;;;11.91;100.00
9462;BME280;4769;42.660;23.262;2024-03-02T11:19:15;93476.56;;;12.13;100.00
9462;BME280;4769;42.660;23.262;2024-03-02T11:22:12;93481.59;;;12.19;100.00
9462;BME280;4769;42.660;23.262;2024-03-02T11:24:56;93481.31;;;12.31;100.00
9462;BME280;4769;42.660;23.262;2024-03-02T11:33:04;93484.75;;;12.46;99.64
9462;BME280;4769;42.660;23.262;2024-03-02T11:35:37;93480.25;;;12.47;99.76
9462;BME280;4769;42.660;23.262;2024-03-02T11:38:04;93470.75;;;12.46;99.60
9462;BME280;4769;42.660;23.262;2024-03-02T11:40:30;93475.50;;;12.44;99.68
9462;BME280;4769;42.660;23.262;2024-03-02T11:43:05;93480.78;;;12.44;99.45
9462;BME280;4769;42.660;23.262;2024-03-02T11:45:30;93482.13;;;12.36;99.19
9462;BME280;4769;42.660;23.262;2024-03-02T11:48:00;93477.63;;;12.32;100.00
9462;BME280;4769;42.660;23.262;2024-03-02T11:50:36;93482.91;;;12.52;99.33
9462;BME280;4769;42.660;23.262;2024-03-02T11:53:06;93476.81;;;12.51;98.66
9462;BME280;4769;42.660;23.262;2024-03-02T11:55:36;93482.91;;;12.52;98.28
9462;BME280;4769;42.660;23.262;2024-03-02T11:58:03;93474.41;;;12.50;98.42
9462;BME280;4769;42.660;23.262;2024-03-02T12:00:29;93479.19;;;12.48;98.49
9462;BME280;4769;42.660;23.262;2024-03-02T12:05:26;93484.47;;;12.53;98.44
9462;BME280;4769;42.660;23.262;2024-03-02T12:08:07;93480.78;;;12.49;98.20
9462;BME280;4769;42.660;23.262;2024-03-02T12:10:34;93485.00;;;12.50;97.31
9462;BME280;4769;42.660;23.262;2024-03-02T12:13:04;93478.09;;;12.59;96.30
9462;BME280;4769;42.660;23.262;2024-03-02T12:15:35;93485.28;;;12.53;95.96
9462;BME280;4769;42.660;23.262;2024-03-02T12:18:04;93482.09;;;12.51;95.70
9462;BME280;4769;42.660;23.262;2024-03-02T12:20:32;93479.72;;;12.50;95.85
9462;BME280;4769;42.660;23.262;2024-03-02T12:22:58;93475.50;;;12.44;96.16
9462;BME280;4769;42.660;23.262;2024-03-02T12:25:25;93481.03;;;12.47;96.47
9462;BME280;4769;42.660;23.262;2024-03-02T12:27:55;93478.38;;;12.62;96.37
9462;BME280;4769;42.660;23.262;2024-03-02T12:30:22;93477.28;;;12.73;96.08
9462;BME280;4769;42.660;23.262;2024-03-02T12:32:48;93477.25;;;12.88;94.83
9462;BME280;4769;42.660;23.262;2024-03-02T12:35:14;93473.56;;;12.84;94.67
9462;BME280;4769;42.660;23.262;2024-03-02T12:37:49;93486.28;;;12.82;95.77
9462;BME280;4769;42.660;23.262;2024-03-02T12:40:16;93470.34;;;13.07;95.68
9462;BME280;4769;42.660;23.262;2024-03-02T12:42:44;93482.72;;;13.22;94.96
9462;BME280;4769;42.660;23.262;2024-03-02T12:45:10;93475.28;;;13.24;94.54
9462;BME280;4769;42.660;23.262;2024-03-02T12:47:37;93473.22;;;13.21;93.57
9462;BME280;4769;42.660;23.262;2024-03-02T12:50:06;93476.41;;;13.13;93.70
9462;BME280;4769;42.660;23.262;2024-03-02T12:52:32;93477.22;;;13.08;94.88
9462;BME280;4769;42.660;23.262;2024-03-02T12:54:59;93473.81;;;13.03;94.83
9462;BME280;4769;42.660;23.262;2024-03-02T12:57:29;93475.91;;;13.01;93.99
9462;BME280;4769;42.660;23.262;2024-03-02T12:59:59;93478.53;;;13.06;93.97
9462;BME280;4769;42.660;23.262;2024-03-02T13:02:28;93482.81;;;13.02;94.16
9462;BME280;4769;42.660;23.262;2024-03-02T13:04:54;93477.78;;;13.00;94.70
9462;BME280;4769;42.660;23.262;2024-03-02T13:07:20;93480.13;;;12.92;95.39
9462;BME280;4769;42.660;23.262;2024-03-02T13:09:49;93485.44;;;12.92;95.97
9462;BME280;4769;42.660;23.262;2024-03-02T13:12:18;93483.84;;;12.91;96.07
9462;BME280;4769;42.660;23.262;2024-03-02T13:14:44;93486.78;;;12.84;96.07
9462;BME280;4769;42.660;23.262;2024-03-02T13:17:09;93487.34;;;12.76;96.34
9462;BME280;4769;42.660;23.262;2024-03-02T13:19:35;93488.69;;;12.74;96.12
9462;BME280;4769;42.660;23.262;2024-03-02T13:22:02;93488.41;;;12.70;96.48
9462;BME280;4769;42.660;23.262;2024-03-02T13:24:29;93496.34;;;12.60;97.43
9462;BME280;4769;42.660;23.262;2024-03-02T13:26:55;93493.44;;;12.62;97.28
9462;BME280;4769;42.660;23.262;2024-03-02T13:29:23;93489.53;;;12.44;98.00
9462;BME280;4769;42.660;23.262;2024-03-02T13:31:49;93493.47;;;12.52;98.86
9462;BME280;4769;42.660;23.262;2024-03-02T13:34:14;93495.56;;;12.50;97.91
9462;BME280;4769;42.660;23.262;2024-03-02T13:36:40;93493.19;;;12.58;97.44
9462;BME280;4769;42.660;23.262;2024-03-02T13:39:06;93495.56;;;12.65;96.79
9462;BME280;4769;42.660;23.262;2024-03-02T13:41:34;93504.56;;;12.74;96.54
9462;BME280;4769;42.660;23.262;2024-03-02T13:43:59;93499.25;;;12.79;96.46
9462;BME280;4769;42.660;23.262;2024-03-02T13:46:26;93500.56;;;12.86;96.12
9462;BME280;4769;42.660;23.262;2024-03-02T13:48:52;93504.22;;;12.95;95.09
9462;BME280;4769;42.660;23.262;2024-03-02T13:51:18;93502.66;;;12.84;95.41
9462;BME280;4769;42.660;23.262;2024-03-02T13:53:43;93506.09;;;12.85;95.68
9462;BME280;4769;42.660;23.262;2024-03-02T13:56:09;93507.72;;;12.76;96.16